Time;durP1;ratioP1;P1;durP2;ratioP2;P2;SDS_P1;SDS_P2;PMS_P1;PMS_P2;Temp;Humidity;BMP_temperature;BMP_pressure;BME280_temperature;BME280_humidity;BME280_pressure;Samples;Min_cycle;Max_cycle;Signal;HPM_P1;HPM_P2
2022/08/22 00:01:06;;;;;;;4.57;2.07;;;22.40;69.70;;;23.59;43.37;100436.63;4993763;28;20693;-66
2022/08/22 00:04:22;;;;;;;2.10;1.87;;;22.30;69.90;;;23.49;43.67;100430.03;4977527;28;20626;-66
2022/08/22 00:07:23;;;;;;;2.87;2.13;;;22.20;70.10;;;23.49;43.52;100432.69;4994025;28;20733;-67
2022/08/22 00:09:51;;;;;;;2.33;2.17;;;22.20;70.30;;;23.39;44.03;100433.06;4976591;28;20617;-68
2022/08/22 00:12:28;;;;;;;2.03;1.90;;;22.20;70.50;;;23.42;44.02;100423.84;4995325;28;20989;-67
2022/08/22 00:15:15;;;;;;;2.83;2.27;;;22.10;70.50;;;23.55;44.08;100432.69;4978315;28;20661;-68
2022/08/22 00:18:41;;;;;;;2.20;2.10;;;22.20;70.70;;;23.43;44.36;100428.16;4992830;28;20689;-67
2022/08/22 00:21:31;;;;;;;2.27;2.10;;;22.20;70.90;;;23.50;44.44;100421.00;4989680;28;20749;-68
2022/08/22 00:24:38;;;;;;;2.33;1.90;;;22.20;71.00;;;23.48;44.28;100418.56;4993973;28;20606;-67
2022/08/22 00:27:31;;;;;;;2.83;2.10;;;22.20;70.90;;;23.42;44.27;100416.69;4994259;28;21026;-69
2022/08/22 00:30:14;;;;;;;2.40;2.03;;;22.20;70.80;;;23.44;43.99;100409.34;4985408;28;20634;-68
2022/08/22 00:32:48;;;;;;;5.23;1.90;;;22.20;70.60;;;23.49;43.83;100412.19;4992605;28;20630;-68
2022/08/22 00:35:41;;;;;;;3.90;2.30;;;22.20;70.70;;;23.37;44.13;100416.47;4980364;28;21038;-67
2022/08/22 00:38:22;;;;;;;2.43;2.10;;;22.20;71.00;;;23.36;44.03;100425.44;4994546;28;20712;-67
2022/08/22 00:41:03;;;;;;;2.03;1.93;;;22.10;71.10;;;23.36;44.34;100422.78;4977878;28;21258;-69
2022/08/22 00:43:32;;;;;;;2.00;1.90;;;22.10;71.20;;;23.36;44.25;100414.00;4975522;28;20645;-67
2022/08/22 00:46:33;;;;;;;2.30;2.10;;;22.10;71.20;;;23.39;44.54;100417.09;4993651;28;21198;-71
2022/08/22 00:49:39;;;;;;;2.70;2.50;;;22.10;71.30;;;23.27;44.68;100426.63;4992756;28;20626;-68
2022/08/22 00:52:24;;;;;;;4.30;1.83;;;22.10;71.40;;;23.33;44.42;100414.38;4993038;28;20732;-67
2022/08/22 00:55:12;;;;;;;2.20;2.10;;;22.00;71.70;;;23.37;44.41;100420.94;4993867;28;21051;-69
2022/08/22 00:58:15;;;;;;;4.10;2.50;;;22.00;71.60;;;23.34;44.80;100422.16;4974693;28;20647;-67
2022/08/22 01:00:51;;;;;;;2.83;2.10;;;22.00;71.70;;;23.26;44.70;100418.81;4975149;28;21242;-68
2022/08/22 01:03:43;;;;;;;3.40;2.43;;;22.00;71.70;;;23.32;44.81;100415.38;4991678;28;21194;-67
2022/08/22 01:06:51;;;;;;;2.20;2.00;;;22.00;71.90;;;23.22;44.74;100423.72;4992833;28;20802;-67
2022/08/22 01:09:33;;;;;;;2.20;2.00;;;22.00;71.90;;;23.09;45.10;100416.50;4975720;28;20657;-68
2022/08/22 01:12:47;;;;;;;2.40;2.20;;;21.90;72.30;;;23.04;45.26;100421.56;4994576;28;21010;-69
2022/08/22 01:15:24;;;;;;;3.13;2.60;;;21.80;72.30;;;23.04;45.27;100424.22;4955398;28;20761;-73
2022/08/22 01:18:20;;;;;;;2.90;2.20;;;21.80;72.60;;;23.03;45.36;100419.09;4975830;28;20674;-67
2022/08/22 01:21:11;;;;;;;1.93;1.90;;;21.70;72.80;;;23.11;45.26;100418.94;4992865;28;20684;-67
2022/08/22 01:24:23;;;;;;;2.23;2.03;;;21.70;73.10;;;23.02;45.50;100418.28;4993946;28;20622;-70
2022/08/22 01:27:10;;;;;;;3.30;2.30;;;21.70;73.00;;;23.07;45.45;100407.88;4975437;28;20646;-67
2022/08/22 01:30:08;;;;;;;2.73;2.17;;;21.70;73.30;;;22.99;45.68;100412.53;4981184;28;20772;-68
2022/08/22 01:33:23;;;;;;;2.83;2.10;;;21.70;73.10;;;22.99;45.73;100413.38;4991901;28;20638;-67
2022/08/22 01:36:17;;;;;;;4.10;2.50;;;21.70;73.30;;;23.01;45.81;100406.00;4975589;28;20621;-68
2022/08/22 01:39:13;;;;;;;2.33;2.10;;;21.60;73.60;;;23.01;45.83;100405.19;4973776;28;21036;-66
2022/08/22 01:42:01;;;;;;;3.10;2.30;;;21.60;73.70;;;22.94;45.82;100402.47;4972982;28;20674;-69
2022/08/22 01:45:14;;;;;;;2.90;2.53;;;21.60;73.70;;;22.95;45.92;100397.97;4982946;28;21233;-66
2022/08/22 01:48:02;;;;;;;3.83;2.37;;;21.60;73.70;;;22.90;46.07;100390.59;4965107;28;21012;-69
2022/08/22 01:50:57;;;;;;;2.13;1.90;;;21.60;73.80;;;22.90;46.26;100403.06;4976373;28;20630;-67
2022/08/22 01:53:42;;;;;;;2.10;2.00;;;21.60;74.10;;;22.86;46.31;100397.31;4971200;28;20638;-67
2022/08/22 01:56:21;;;;;;;2.73;2.40;;;21.60;74.00;;;22.83;46.48;100395.03;4993175;28;21150;-67
2022/08/22 01:59:11;;;;;;;3.23;2.37;;;21.60;74.40;;;22.81;46.58;100398.91;4970509;28;20750;-67
2022/08/22 02:02:15;;;;;;;3.60;2.33;;;21.50;74.50;;;22.79;46.60;100401.75;4955986;28;20671;-67
2022/08/22 02:05:09;;;;;;;3.20;2.90;;;21.50;74.60;;;22.85;46.57;100411.63;4973693;28;20612;-66
2022/08/22 02:08:11;;;;;;;3.00;2.43;;;21.60;74.70;;;22.95;46.14;100408.63;4990991;28;20635;-67
2022/08/22 02:11:09;;;;;;;2.10;2.00;;;21.60;74.50;;;22.75;46.91;100407.66;4992791;28;20618;-66
2022/08/22 02:14:04;;;;;;;5.93;2.50;;;21.60;74.90;;;22.86;46.64;100409.78;4981895;28;20646;-66
2022/08/22 02:16:51;;;;;;;3.80;2.57;;;21.60;75.00;;;22.81;46.92;100407.72;4988788;28;21055;-66
2022/08/22 02:19:50;;;;;;;2.37;2.27;;;21.60;75.20;;;22.68;47.18;100410.28;4988283;28;20657;-67
2022/08/22 02:22:36;;;;;;;2.87;2.50;;;21.50;76.00;;;22.67;47.20;100405.97;4975278;28;20661;-66
2022/08/22 02:26:01;;;;;;;3.17;1.93;;;21.50;75.60;;;22.49;47.68;100405.59;4974546;28;20642;-68
2022/08/22 02:29:09;;;;;;;2.60;2.40;;;21.40;75.80;;;22.54;47.78;100413.81;4965787;28;20655;-68
2022/08/22 02:31:43;;;;;;;4.37;2.57;;;21.30;76.20;;;22.53;47.71;100406.06;4950040;28;20627;-70
2022/08/22 02:34:25;;;;;;;2.30;2.10;;;21.30;76.70;;;22.57;47.87;100399.31;4974987;28;20648;-66
2022/08/22 02:37:04;;;;;;;2.57;2.33;;;21.30;76.70;;;22.66;47.48;100393.69;4991877;28;20629;-66
2022/08/22 02:39:38;;;;;;;3.07;2.30;;;21.30;76.70;;;22.70;47.48;100389.63;4989232;28;21271;-66
2022/08/22 02:42:25;;;;;;;2.37;1.93;;;21.40;76.70;;;22.61;47.73;100393.47;4992883;28;20662;-68
2022/08/22 02:45:18;;;;;;;2.87;2.17;;;21.40;76.80;;;22.59;48.00;100398.16;4990613;28;20634;-68
2022/08/22 02:48:16;;;;;;;2.47;2.27;;;21.30;77.00;;;22.61;48.04;100398.78;4987221;28;20653;-66
2022/08/22 02:50:58;;;;;;;2.50;2.30;;;21.30;77.20;;;22.63;48.08;100394.09;4990771;28;20610;-66
2022/08/22 02:53:47;;;;;;;2.97;2.70;;;21.30;77.20;;;22.54;48.47;100395.22;4992403;28;20724;-67
2022/08/22 02:56:24;;;;;;;2.60;2.40;;;21.30;77.50;;;22.49;48.31;100389.63;4991953;28;20629;-66
2022/08/22 02:59:18;;;;;;;2.87;2.67;;;21.30;77.70;;;22.42;48.67;100394.91;4980876;28;20668;-67
2022/08/22 03:01:46;;;;;;;2.97;2.67;;;21.20;77.80;;;22.42;48.55;100392.25;4991245;28;20659;-67
2022/08/22 03:04:31;;;;;;;4.03;2.67;;;21.20;78.00;;;22.23;48.97;100390.25;4990971;28;20642;-67
2022/08/22 03:07:18;;;;;;;2.63;2.43;;;21.10;78.30;;;22.23;49.00;100390.25;4992261;28;20713;-67
2022/08/22 03:09:57;;;;;;;2.90;2.20;;;21.00;78.70;;;22.17;49.25;100384.88;4990769;28;20648;-67
2022/08/22 03:12:51;;;;;;;2.40;2.30;;;21.00;79.00;;;22.16;49.29;100399.19;4973706;28;20622;-66
2022/08/22 03:15:50;;;;;;;2.70;2.20;;;21.00;79.00;;;22.21;49.03;100396.78;4991434;28;20639;-72
2022/08/22 03:18:47;;;;;;;2.50;2.30;;;20.90;79.10;;;22.11;49.49;100394.44;4972968;28;20643;-66
2022/08/22 03:21:44;;;;;;;2.30;2.20;;;20.90;79.40;;;21.98;49.58;100394.31;4977429;28;20670;-67
2022/08/22 03:24:50;;;;;;;2.80;2.50;;;20.80;79.80;;;22.02;49.57;100392.09;4989731;28;20746;-69
2022/08/22 03:27:40;;;;;;;2.30;2.20;;;20.80;80.10;;;21.98;49.75;100391.66;4983153;28;20622;-69
2022/08/22 03:30:37;;;;;;;2.87;2.23;;;20.70;80.40;;;21.90;50.01;100401.56;4989411;28;20638;-68
2022/08/22 03:33:24;;;;;;;2.20;2.10;;;20.60;80.70;;;21.86;50.18;100397.66;4969275;28;21066;-67
2022/08/22 03:36:18;;;;;;;2.00;1.90;;;20.60;81.00;;;21.88;50.10;100403.59;4972942;28;20741;-66
2022/08/22 03:39:18;;;;;;;2.60;2.40;;;20.60;81.30;;;21.78;50.58;100395.09;4977917;28;21018;-68
2022/08/22 03:42:16;;;;;;;6.40;2.37;;;20.50;81.40;;;21.75;50.63;100398.94;4974863;28;20676;-69
2022/08/22 03:45:14;;;;;;;3.27;2.50;;;20.40;81.70;;;21.72;50.46;100401.16;4972545;28;20626;-69
2022/08/22 03:48:12;;;;;;;2.93;2.60;;;20.40;82.10;;;21.72;50.87;100401.97;4989335;28;21023;-67
2022/08/22 03:50:53;;;;;;;2.60;2.40;;;20.40;82.20;;;21.73;50.83;100402.78;4988568;28;20631;-67
2022/08/22 03:53:48;;;;;;;2.10;2.00;;;20.40;82.40;;;21.54;51.31;100405.03;4988870;28;20634;-68
2022/08/22 03:56:53;;;;;;;2.43;2.33;;;20.40;82.70;;;21.46;51.30;100406.97;4990180;28;20673;-68
2022/08/22 03:59:49;;;;;;;3.63;2.53;;;20.40;83.10;;;21.55;51.32;100409.31;4991728;28;20662;-67
2022/08/22 04:02:47;;;;;;;2.13;2.03;;;20.30;83.50;;;21.52;51.45;100411.53;4983149;28;20662;-70
2022/08/22 04:05:42;;;;;;;3.13;2.50;;;20.30;83.60;;;21.46;51.69;100415.78;4990044;28;20643;-68
2022/08/22 04:08:22;;;;;;;2.50;2.30;;;20.30;83.80;;;21.39;51.70;100412.19;4970767;28;21237;-67
2022/08/22 04:11:16;;;;;;;2.33;2.00;;;20.20;84.10;;;21.28;52.06;100410.00;4972570;28;20628;-68
2022/08/22 04:14:34;;;;;;;2.70;2.43;;;20.10;84.70;;;21.28;52.18;100409.19;4989245;28;20642;-67
2022/08/22 04:17:54;;;;;;;2.73;2.53;;;20.00;85.60;;;21.23;52.53;100420.34;4936273;29;20655;-67
2022/08/22 04:21:00;;;;;;;2.43;2.23;;;20.00;86.10;;;21.15;52.68;100417.78;4914759;29;20622;-67
2022/08/22 04:24:09;;;;;;;3.13;2.20;;;20.00;86.50;;;21.21;53.00;100419.69;4990668;28;21003;-67
2022/08/22 04:26:48;;;;;;;2.70;2.50;;;19.90;87.00;;;21.23;52.89;100419.53;4973975;28;20621;-68
2022/08/22 04:29:27;;;;;;;3.07;2.57;;;19.90;87.50;;;21.24;52.87;100419.34;4972275;28;20658;-67
2022/08/22 04:32:38;;;;;;;2.30;2.20;;;19.90;88.00;;;21.22;52.91;100417.88;4983136;28;21013;-67
2022/08/22 04:35:12;;;;;;;2.53;2.40;;;19.90;88.40;;;21.18;53.30;100420.09;4992475;28;20727;-69
2022/08/22 04:40:33;;;;;;;2.93;2.70;;;19.90;89.20;;;21.24;52.89;100423.81;4960122;28;20671;-66
2022/08/22 04:43:15;;;;;;;2.50;2.30;;;19.90;89.20;;;21.26;53.02;100425.28;4938017;29;20753;-66
2022/08/22 04:45:58;;;;;;;3.00;2.47;;;19.90;89.30;;;21.35;52.67;100440.13;4967895;28;20729;-65
2022/08/22 04:48:30;;;;;;;2.23;2.03;;;20.00;89.20;;;21.28;52.85;100431.25;4973848;28;21013;-67
2022/08/22 04:51:11;;;;;;;2.87;2.53;;;20.00;89.10;;;21.33;52.63;100442.13;4954805;28;20636;-67
2022/08/22 04:53:47;;;;;;;6.53;3.30;;;20.00;89.20;;;21.37;52.42;100429.31;4937699;29;20600;-67
2022/08/22 04:57:04;;;;;;;2.93;2.40;;;20.00;89.20;;;21.53;52.50;100435.22;4954277;28;20636;-67
2022/08/22 04:59:32;;;;;;;3.80;2.97;;;20.20;89.10;;;21.76;52.15;100428.97;4919331;29;20646;-66
2022/08/22 05:02:05;;;;;;;2.60;2.30;;;20.30;88.40;;;21.90;51.19;100422.81;4936864;29;20711;-67
2022/08/22 05:04:42;;;;;;;3.27;2.60;;;20.50;87.80;;;22.16;50.35;100433.72;4938792;29;21075;-66
2022/08/22 05:07:24;;;;;;;4.97;2.87;;;20.80;87.00;;;22.31;50.10;100430.00;4954262;29;20613;-66
2022/08/22 05:10:09;;;;;;;2.63;2.43;;;20.90;86.20;;;22.42;49.31;100441.13;4966273;28;20654;-67
2022/08/22 05:12:44;;;;;;;2.60;2.50;;;21.10;85.30;;;22.71;49.07;100448.97;4974816;28;20670;-67
2022/08/22 05:15:50;;;;;;;2.60;2.40;;;21.40;84.90;;;23.02;48.15;100436.09;4950635;28;22378;-66
2022/08/22 05:18:28;;;;;;;2.57;2.37;;;21.70;83.70;;;23.22;47.91;100433.53;4888255;29;20753;-67
2022/08/22 05:21:01;;;;;;;4.10;2.63;;;21.90;83.00;;;23.44;47.38;100437.78;4946250;28;21256;-67
2022/08/22 05:23:42;;;;;;;4.23;2.70;;;22.10;82.30;;;23.83;46.12;100443.25;4971701;28;20634;-67
2022/08/22 05:26:12;;;;;;;6.47;3.20;;;22.40;81.40;;;24.06;45.80;100441.13;4972439;28;21008;-67
2022/08/22 05:28:48;;;;;;;3.53;3.20;;;22.70;80.30;;;24.36;44.92;100433.56;4973867;28;20699;-67
2022/08/22 05:31:39;;;;;;;2.83;2.63;;;23.00;79.70;;;24.75;44.13;100436.25;4961547;28;20639;-66
2022/08/22 05:34:23;;;;;;;2.40;2.23;;;23.30;78.80;;;25.12;43.19;100440.94;4972302;28;21205;-67
2022/08/22 05:37:06;;;;;;;4.63;2.87;;;23.60;78.00;;;25.51;43.06;100442.69;4940683;28;20632;-66
2022/08/22 05:39:36;;;;;;;7.03;3.00;;;23.80;77.30;;;25.65;42.60;100438.94;4947884;28;20674;-66
2022/08/22 05:42:11;;;;;;;5.73;2.60;;;24.00;76.60;;;25.96;41.40;100436.28;4979593;28;21033;-67
2022/08/22 05:44:38;;;;;;;5.83;3.50;;;24.20;76.00;;;26.57;40.78;100439.19;4971269;28;20615;-67
2022/08/22 05:47:26;;;;;;;3.13;2.87;;;24.70;75.30;;;27.29;39.40;100437.69;4972863;28;20615;-67
2022/08/22 05:50:18;;;;;;;4.13;2.87;;;25.20;74.20;;;27.82;37.91;100440.56;4963990;28;20663;-67
2022/08/22 05:53:26;;;;;;;4.80;2.97;;;25.70;72.80;;;28.21;37.70;100446.22;4957300;28;21066;-67
2022/08/22 05:56:42;;;;;;;3.13;2.83;;;26.00;71.30;;;28.93;36.49;100450.41;4959987;28;21218;-66
2022/08/22 05:59:31;;;;;;;5.20;3.67;;;26.60;70.20;;;29.15;35.19;100454.16;4958747;28;21234;-67
2022/08/22 06:02:23;;;;;;;4.93;3.77;;;26.80;68.90;;;29.64;34.36;100457.34;4972809;28;20663;-67
2022/08/22 06:04:57;;;;;;;3.60;3.30;;;27.30;68.60;;;30.18;33.91;100459.47;4972693;28;20624;-67
2022/08/22 06:07:34;;;;;;;4.23;3.40;;;27.60;67.50;;;30.86;32.65;100459.31;4968808;28;20636;-67
2022/08/22 06:10:20;;;;;;;3.47;3.17;;;28.00;66.60;;;31.16;32.52;100456.22;4954244;29;20668;-67
2022/08/22 06:13:14;;;;;;;2.90;2.70;;;28.20;65.80;;;31.34;32.18;100454.06;4952964;28;21238;-67
2022/08/22 06:16:04;;;;;;;5.00;3.50;;;28.30;65.30;;;31.93;31.16;100456.94;4959797;28;20624;-67
2022/08/22 06:18:34;;;;;;;5.90;3.73;;;28.70;64.80;;;32.52;30.53;100460.53;4953868;28;20666;-66
2022/08/22 06:21:11;;;;;;;4.30;3.27;;;29.10;64.00;;;33.55;28.91;100460.66;4962926;28;21121;-67
2022/08/22 06:23:55;;;;;;;6.53;3.20;;;29.80;62.90;;;34.37;28.10;100471.41;4970783;28;20662;-67
2022/08/22 06:26:27;;;;;;;3.57;3.10;;;30.30;62.40;;;35.02;26.73;100467.91;4949333;28;20658;-67
2022/08/22 06:28:58;;;;;;;4.30;3.53;;;30.90;60.70;;;35.98;26.12;100464.81;4945894;28;20655;-67
2022/08/22 06:31:31;;;;;;;3.80;3.50;;;31.60;59.40;;;36.52;25.44;100465.50;4963905;28;20620;-67
2022/08/22 06:34:23;;;;;;;3.53;3.27;;;32.30;58.00;;;37.00;25.02;100473.78;4968817;28;20955;-67
2022/08/22 06:36:52;;;;;;;3.60;3.30;;;32.90;56.70;;;37.37;24.27;100484.03;4954339;28;20616;-67
2022/08/22 06:39:33;;;;;;;3.23;2.97;;;33.20;56.00;;;37.95;23.69;100491.69;4970433;28;20655;-67
2022/08/22 06:42:10;;;;;;;3.70;3.20;;;33.60;55.30;;;39.19;22.31;100488.31;4962395;28;20656;-67
2022/08/22 06:44:56;;;;;;;3.50;3.20;;;34.20;54.60;;;40.19;21.41;100485.34;4966004;28;21042;-67
2022/08/22 06:47:32;;;;;;;3.10;2.80;;;34.80;53.70;;;41.07;20.55;100489.16;4958006;28;20634;-68
2022/08/22 06:50:06;;;;;;;3.27;2.97;;;35.30;53.10;;;41.93;19.64;100487.50;4969374;28;20746;-67
2022/08/22 06:53:04;;;;;;;2.73;2.63;;;36.10;52.00;;;43.15;18.75;100494.09;4963336;28;20636;-67
2022/08/22 06:55:33;;;;;;;4.97;3.07;;;37.10;50.60;;;43.78;18.02;100484.91;4962305;28;21216;-66
2022/08/22 06:58:11;;;;;;;3.00;2.80;;;37.70;49.40;;;44.55;17.34;100487.00;4954497;28;20639;-67
2022/08/22 07:00:42;;;;;;;2.67;2.50;;;38.20;48.90;;;45.34;16.36;100486.56;4954568;28;21020;-66
2022/08/22 07:03:19;;;;;;;3.93;3.03;;;38.70;48.20;;;45.79;16.36;100494.69;4952481;28;20702;-66
2022/08/22 07:05:46;;;;;;;2.77;2.60;;;39.20;47.30;;;46.08;16.21;100497.13;4953802;28;20657;-66
2022/08/22 07:08:19;;;;;;;2.63;2.50;;;39.60;46.70;;;46.46;15.94;100500.19;4954615;28;20647;-67
2022/08/22 07:11:27;;;;;;;2.83;2.63;;;40.00;46.10;;;46.76;15.80;100501.44;4956438;28;20631;-67
2022/08/22 07:14:01;;;;;;;2.60;2.50;;;40.40;45.50;;;46.81;15.34;100501.16;4939344;29;20641;-67
2022/08/22 07:16:50;;;;;;;6.87;2.73;;;40.60;44.70;;;46.79;14.95;100497.94;4966773;28;20649;-66
2022/08/22 07:19:37;;;;;;;3.60;2.97;;;40.70;44.30;;;46.23;15.86;100490.88;4963394;28;20665;-67
2022/08/22 07:22:26;;;;;;;5.57;3.20;;;40.60;43.80;;;45.96;15.98;100497.97;4953746;28;20664;-66
2022/08/22 07:25:13;;;;;;;2.77;2.53;;;40.30;43.70;;;45.43;16.22;100497.47;4954348;28;20619;-66
2022/08/22 07:28:12;;;;;;;3.00;2.80;;;40.00;43.70;;;44.29;17.05;100494.69;4955476;28;20608;-67
2022/08/22 07:31:00;;;;;;;4.70;3.10;;;39.50;44.10;;;43.15;17.75;100486.66;4952398;29;20611;-66
2022/08/22 07:33:44;;;;;;;2.90;2.80;;;38.90;44.50;;;43.11;18.13;100493.16;4953977;28;20722;-66
2022/08/22 07:36:27;;;;;;;3.10;2.80;;;38.50;44.80;;;42.57;18.52;100496.72;4966777;28;21246;-66
2022/08/22 07:39:33;;;;;;;4.87;3.53;;;38.10;44.80;;;41.89;18.73;100492.84;4953073;28;20690;-66
2022/08/22 07:42:31;;;;;;;4.57;3.27;;;37.60;45.20;;;40.66;19.98;100501.16;4922138;29;20663;-66
2022/08/22 07:45:12;;;;;;;4.53;3.10;;;37.10;45.50;;;39.72;20.66;100492.16;4951477;29;21184;-67
2022/08/22 07:48:07;;;;;;;5.03;3.40;;;36.20;46.10;;;39.97;20.76;100499.00;4938616;28;20607;-66
2022/08/22 07:51:00;;;;;;;7.40;3.80;;;36.10;46.70;;;41.07;19.87;100498.19;4959720;28;20628;-67
2022/08/22 07:54:00;;;;;;;3.83;3.60;;;36.40;46.40;;;40.45;20.29;100497.34;4970541;28;21228;-67
2022/08/22 07:56:41;;;;;;;7.90;3.67;;;36.30;45.90;;;38.91;21.65;100495.63;4953671;28;21002;-66
2022/08/22 07:59:18;;;;;;;3.57;3.27;;;35.60;46.30;;;38.22;22.21;100496.50;4949628;28;20663;-66
2022/08/22 08:01:49;;;;;;;3.30;2.93;;;34.90;47.20;;;38.89;21.82;100495.13;4943302;28;20731;-67
2022/08/22 08:04:25;;;;;;;6.07;3.80;;;34.90;47.20;;;38.56;22.20;100499.78;4957879;28;20671;-67
2022/08/22 08:06:57;;;;;;;10.63;3.40;;;34.80;47.20;;;38.08;22.61;100498.31;4964712;28;21167;-66
2022/08/22 08:09:31;;;;;;;5.80;3.40;;;34.50;48.50;;;38.48;22.37;100494.19;4974917;28;21333;-67
2022/08/22 08:12:01;;;;;;;3.97;3.50;;;34.50;47.70;;;38.06;22.33;100495.91;4958268;28;20642;-66
2022/08/22 08:14:29;;;;;;;3.43;3.13;;;34.30;47.60;;;37.22;23.02;100491.25;4975152;28;20643;-67
2022/08/22 08:17:04;;;;;;;59.90;8.53;;;33.90;47.50;;;38.00;22.43;100494.38;4975067;28;21135;-67
2022/08/22 08:19:39;;;;;;;4.43;4.10;;;33.90;48.00;;;38.50;21.75;100497.44;4974200;28;20663;-67
2022/08/22 08:22:14;;;;;;;6.80;3.43;;;34.10;47.70;;;40.76;19.53;100492.69;4963284;28;21297;-67
2022/08/22 08:24:42;;;;;;;6.97;3.90;;;35.10;46.90;;;43.35;17.50;100503.56;4989166;28;20619;-67
2022/08/22 08:30:12;;;;;;;3.40;3.10;;;38.30;44.60;;;47.09;14.39;100511.34;4961660;28;20619;-67
2022/08/22 08:32:54;;;;;;;4.97;3.20;;;39.60;43.90;;;47.95;14.13;100516.53;4957532;28;20667;-67
2022/08/22 08:35:51;;;;;;;4.13;3.57;;;40.30;42.40;;;49.14;13.22;100510.91;4960686;28;20639;-67
2022/08/22 08:38:36;;;;;;;3.97;3.13;;;41.20;41.70;;;48.79;13.21;100505.59;4972822;28;20686;-68
2022/08/22 08:41:41;;;;;;;3.00;2.80;;;41.50;41.10;;;49.03;13.09;100515.50;4957032;28;20809;-67
2022/08/22 08:44:40;;;;;;;2.70;2.60;;;41.90;41.00;;;47.69;14.05;100508.03;4970113;28;20667;-67
2022/08/22 08:47:45;;;;;;;3.03;2.70;;;41.60;40.60;;;48.02;13.95;100502.06;4973624;28;20647;-67
2022/08/22 08:50:34;;;;;;;2.90;2.80;;;41.50;40.70;;;50.21;12.26;100515.66;4957013;28;20659;-67
2022/08/22 08:53:37;;;;;;;2.93;2.73;;;42.30;40.30;;;51.71;11.22;100513.81;4953875;29;20675;-67
2022/08/22 08:56:39;;;;;;;3.33;3.20;;;43.40;39.50;;;53.32;10.90;100518.16;4939775;28;20683;-67
2022/08/22 08:59:55;;;;;;;3.83;3.50;;;44.50;39.00;;;54.44;10.38;100513.41;4974292;28;20697;-67
2022/08/22 09:02:28;;;;;;;7.97;3.70;;;45.50;38.30;;;54.97;9.36;100508.19;4957800;28;21022;-67
2022/08/22 09:05:11;;;;;;;4.53;3.37;;;46.20;37.60;;;55.36;10.02;100505.84;4957987;28;20639;-68
2022/08/22 09:07:50;;;;;;;3.33;3.13;;;46.50;37.40;;;56.13;9.37;100511.72;4955476;29;20731;-68
2022/08/22 09:10:51;;;;;;;3.70;3.20;;;47.30;36.90;;;54.56;9.73;100505.31;4955544;29;20986;-68
2022/08/22 09:13:52;;;;;;;3.83;3.57;;;47.00;36.60;;;54.42;9.57;100513.03;4963757;28;20645;-68
2022/08/22 09:16:57;;;;;;;11.23;3.97;;;46.60;36.70;;;55.02;9.16;100504.97;4965254;28;20649;-68
2022/08/22 09:20:05;;;;;;;35.47;6.33;;;47.40;36.50;;;55.41;9.60;100508.19;4954007;28;21238;-67
2022/08/22 09:23:17;;;;;;;4.93;3.37;;;47.20;36.30;;;56.35;8.86;100512.22;4954037;29;20731;-68
2022/08/22 09:26:04;;;;;;;4.10;3.43;;;48.00;36.20;;;55.32;9.02;100507.88;4954297;28;20616;-67
2022/08/22 09:28:54;;;;;;;5.13;3.40;;;48.00;35.70;;;51.68;11.46;100498.72;4954984;29;20707;-68
2022/08/22 09:32:15;;;;;;;3.83;3.60;;;46.50;36.10;;;52.67;10.68;100496.28;4971448;28;20634;-67
2022/08/22 09:35:27;;;;;;;4.37;3.97;;;45.70;36.70;;;54.21;10.04;100496.34;4939591;28;20734;-67
2022/08/22 09:38:06;;;;;;;4.03;3.70;;;46.30;36.90;;;54.61;9.29;100492.91;4903264;29;21343;-68
2022/08/22 09:40:49;;;;;;;4.00;3.70;;;46.90;35.90;;;56.68;9.11;100489.69;4969524;28;20642;-68
2022/08/22 09:43:27;;;;;;;3.77;3.57;;;47.80;35.70;;;57.64;8.63;100483.09;4972049;28;20674;-68
2022/08/22 09:46:24;;;;;;;3.87;3.67;;;48.80;35.30;;;57.53;8.26;100483.31;4953631;28;21434;-68
2022/08/22 09:49:13;;;;;;;4.10;3.90;;;48.80;35.10;;;57.54;7.97;100476.50;4973032;28;20678;-68
2022/08/22 09:52:16;;;;;;;7.60;4.20;;;48.90;35.00;;;57.78;8.03;100477.22;4961779;28;20631;-67
2022/08/22 09:55:38;;;;;;;4.50;4.10;;;49.00;34.90;;;58.55;7.91;100468.22;4961319;28;20630;-67
2022/08/22 09:58:50;;;;;;;6.37;4.60;;;49.60;34.70;;;58.37;7.84;100470.66;4957086;28;20298;-67
2022/08/22 10:02:07;;;;;;;3.87;3.67;;;49.60;34.50;;;58.56;8.20;100464.16;4969173;28;20204;-67
2022/08/22 10:05:05;;;;;;;4.50;4.20;;;49.70;34.40;;;58.25;7.67;100464.50;4958206;28;20238;-66
2022/08/22 10:08:06;;;;;;;4.17;3.97;;;49.40;34.00;;;57.55;7.53;100457.66;4954149;29;20251;-66
2022/08/22 10:11:11;;;;;;;4.13;3.90;;;49.10;33.90;;;57.90;8.19;100458.91;4954838;29;20286;-67
2022/08/22 10:13:54;;;;;;;16.10;5.57;;;49.40;33.90;;;57.35;8.20;100446.41;4954814;29;20247;-67
2022/08/22 10:16:58;;;;;;;3.93;3.73;;;49.10;33.90;;;56.11;8.99;100432.94;4966223;28;20290;-66
2022/08/22 10:19:40;;;;;;;8.10;4.17;;;48.30;34.70;;;55.09;9.50;100435.00;4966845;28;21280;-66
2022/08/22 10:22:21;;;;;;;5.50;4.30;;;47.60;34.30;;;54.61;9.09;100435.03;4972322;28;20629;-66
2022/08/22 10:24:54;;;;;;;4.67;4.40;;;47.20;34.50;;;53.30;10.37;100425.75;4966269;28;20635;-66
2022/08/22 10:27:52;;;;;;;4.77;4.33;;;46.40;34.90;;;51.44;11.45;100415.13;4971791;28;20631;-66
2022/08/22 10:30:45;;;;;;;5.20;4.00;;;45.70;35.40;;;48.97;12.63;100409.72;4952558;28;20655;-66
2022/08/22 10:33:32;;;;;;;4.57;4.13;;;44.10;35.90;;;46.75;14.00;100410.66;4956202;28;20988;-66
2022/08/22 10:36:12;;;;;;;3.93;3.60;;;42.90;36.80;;;44.45;15.65;100405.69;4955621;28;20630;-66
2022/08/22 10:38:57;;;;;;;4.30;3.90;;;41.40;37.20;;;42.09;18.18;100396.28;4984037;23;20795;-66
2022/08/22 10:41:37;;;;;;;11.10;4.80;;;40.00;38.40;;;40.23;19.84;100398.91;4953098;28;20668;-67
2022/08/22 10:44:34;;;;;;;6.93;4.10;;;38.50;39.70;;;38.70;21.27;100399.75;4952759;29;20698;-67
2022/08/22 10:47:11;;;;;;;4.13;3.73;;;37.50;40.40;;;37.63;21.91;100393.56;4967595;28;20622;-67
2022/08/22 10:49:53;;;;;;;7.27;5.57;;;36.20;40.90;;;36.79;22.44;100399.75;4982733;28;20714;-67
2022/08/22 10:52:31;;;;;;;8.93;4.13;;;35.50;41.40;;;36.04;22.63;100390.38;4971389;28;21068;-68
2022/08/22 10:55:07;;;;;;;4.03;3.73;;;34.60;42.50;;;35.83;23.32;100381.53;4970594;28;20635;-68
2022/08/22 10:57:59;;;;;;;5.40;3.67;;;34.30;42.30;;;35.70;23.50;100381.34;4987771;28;20627;-68
2022/08/22 11:00:53;;;;;;;5.87;4.80;;;34.00;42.70;;;35.41;24.17;100377.69;4953732;28;20674;-68
2022/08/22 11:03:56;;;;;;;4.03;3.73;;;33.70;43.00;;;35.08;23.37;100382.72;4970420;28;20668;-68
2022/08/22 11:06:35;;;;;;;4.20;3.80;;;33.60;42.70;;;34.63;24.22;100371.19;4966954;28;20642;-69
2022/08/22 11:09:35;;;;;;;4.40;3.70;;;33.00;42.80;;;34.37;23.96;100375.81;4971526;28;21272;-68
2022/08/22 11:12:36;;;;;;;3.03;2.83;;;32.70;43.20;;;34.00;23.80;100375.22;4961818;28;20701;-68
2022/08/22 11:15:48;;;;;;;3.23;2.17;;;32.50;42.30;;;33.58;23.63;100373.53;4965997;28;20663;-69
2022/08/22 11:19:01;;;;;;;3.20;2.87;;;32.00;42.30;;;32.66;25.26;100370.69;4962268;28;20683;-67
2022/08/22 11:22:19;;;;;;;3.40;3.00;;;31.50;43.20;;;32.17;25.90;100366.50;4967438;28;20691;-68
2022/08/22 11:25:20;;;;;;;3.53;3.33;;;30.90;44.10;;;32.18;26.32;100364.63;4953392;28;21247;-66
2022/08/22 11:28:29;;;;;;;3.73;3.30;;;30.70;44.70;;;32.32;25.35;100363.13;4984142;28;20628;-68
2022/08/22 11:31:22;;;;;;;3.67;3.07;;;30.60;44.20;;;32.17;25.98;100358.41;4965556;28;20632;-68
2022/08/22 11:34:13;;;;;;;3.40;3.10;;;30.60;44.40;;;32.27;25.76;100361.19;4978066;28;20667;-68
2022/08/22 11:37:09;;;;;;;4.80;3.37;;;30.60;44.50;;;32.21;25.82;100358.69;4957250;28;20632;-67
2022/08/22 11:40:05;;;;;;;3.63;3.33;;;30.60;44.60;;;32.17;26.44;100357.59;4953860;28;20739;-70
2022/08/22 11:43:21;;;;;;;4.63;3.87;;;30.50;45.50;;;32.00;26.11;100350.47;4985165;28;20771;-68
2022/08/22 11:45:55;;;;;;;7.73;3.93;;;30.40;44.50;;;32.11;25.64;100349.44;4971802;28;20626;-69
2022/08/22 11:48:39;;;;;;;3.17;2.97;;;30.50;44.30;;;32.17;25.42;100344.09;4970494;28;20676;-70
2022/08/22 11:51:42;;;;;;;2.90;2.70;;;30.50;44.00;;;32.13;25.55;100343.81;4965147;28;20633;-69